Flight Track Log - Related Links

Times and Time Zones

All times are in EST time to prevent confusion due to time zone crossing. See the UPS2038 flight status page for this flight to view local times or setup timezone preferences in your user account.

Time Position Orientation Groundspeed Altitude Reporting Facility
EST Latitude Longitude Course Direction KTS MPH feet Rate Location/Type
Wed 04:12:20 PM 32.8850 -97.0300 180° South 173 199 1,000  Level FlightAware ADS-B
Wed 04:13:05 PM 32.8470 -97.0250 174° South 221 254 2,800 2,750 Climbing FlightAware ADS-B
Wed 04:13:32 PM 32.8180 -97.0110 158° South 248 285 4,300 3,600 Climbing FlightAware ADS-B
Wed 04:14:00 PM 32.7880 -96.9960 157° South 257 296 6,100 3,639 Climbing FlightAware ADS-B
Wed 04:14:33 PM 32.7670 -96.9550 121° Southeast 271 312 8,000 2,760 Climbing FlightAware ADS-B
Wed 04:14:50 PM 32.7630 -96.9310 101° East 286 329 8,400 1,200 Climbing FlightAware ADS-B
Wed 04:15:23 PM 32.7660 -96.8770 86° East 295 339 9,000 1,364 Climbing FlightAware ADS-B
Wed 04:15:56 PM 32.7730 -96.8240 81° East 318 366 9,900 1,594 Climbing FlightAware ADS-B
Wed 04:16:27 PM 32.7940 -96.7700 65° Northeast 364 419 10,700 2,239 Climbing FlightAware ADS-B
Wed 04:17:03 PM 32.8220 -96.7020 64° Northeast 385 443 12,400 2,872 Climbing FlightAware ADS-B
Wed 04:18:01 PM 32.8670 -96.5910 64° Northeast 405 466 15,200 2,864 Climbing FlightAware ADS-B
Wed 04:18:31 PM 32.8930 -96.5280 64° Northeast 416 479 16,600 2,700 Climbing FlightAware ADS-B
Wed 04:19:21 PM 32.9350 -96.4220 65° Northeast 429 494 18,800 2,488 Climbing FlightAware ADS-B
Wed 04:19:53 PM 32.9590 -96.3540 67° East 438 504 20,000 2,301 Climbing FlightAware ADS-B
Wed 04:20:34 PM 32.9820 -96.2580 74° East 447 514 21,600 2,239 Climbing FlightAware ADS-B
Wed 04:21:00 PM 32.9910 -96.1960 80° East 453 521 22,500 1,920 Climbing FlightAware ADS-B
Wed 04:21:49 PM 33.0070 -96.0730 81° East 471 542 24,000 1,926 Climbing FlightAware ADS-B
Wed 04:22:21 PM 33.0190 -95.9880 80° East 478 550 25,100 1,953 Climbing FlightAware ADS-B
Wed 04:23:15 PM 33.0388 -95.8407 81° East 489 563 26,800 1,768 Climbing FlightAware ADS-B
Wed 04:23:56 PM 33.0539 -95.7302 81° East 499 574 27,900 1,516 Climbing FlightAware ADS-B
Wed 04:24:50 PM 33.0751 -95.5828 80° East 502 578 29,200 1,448 Climbing FlightAware ADS-B
Wed 04:25:23 PM 33.0960 -95.4930 74° East 516 594 30,000 1,416 Climbing FlightAware ADS-B
Wed 04:26:19 PM 33.1372 -95.3586 70° East 519 597 31,300 1,706 Climbing FlightAware ADS-B
Wed 04:27:05 PM 33.1791 -95.2220 70° East 515 593 32,900 1,870 Climbing FlightAware ADS-B
Wed 04:27:36 PM 33.2040 -95.1390 70° East 510 587 33,700 1,355 Climbing FlightAware ADS-B
Wed 04:28:07 PM 33.2287 -95.0543 71° East 513 590 34,300 986 Climbing FlightAware ADS-B
Wed 04:28:49 PM 33.2620 -94.9410 71° East 521 600 34,900 424 Climbing FlightAware ADS-B
Wed 04:29:46 PM 33.3080 -94.7870 70° East 531 611 35,000 66 Climbing FlightAware ADS-B
Wed 04:30:20 PM 33.3360 -94.6910 71° East 528 608 35,000  Level FlightAware ADS-B
Wed 04:31:06 PM 33.3726 -94.5671 70° East 525 604 35,000  Level FlightAware ADS-B
Wed 04:31:36 PM 33.3972 -94.4822 71° East 524 603 35,000  Level FlightAware ADS-B
Wed 04:32:35 PM 33.4400 -94.3360 71° East 519 597 35,000  Level FlightAware ADS-B
Wed 04:33:21 PM 33.4790 -94.2000 71° East 521 600 35,000  Level FlightAware ADS-B
Wed 04:34:21 PM 33.5290 -94.0370 70° East 524 603 35,000  Level FlightAware ADS-B
Wed 04:34:39 PM 33.5460 -93.9920 66° East 523 602 35,000  Level FlightAware ADS-B
Wed 04:35:30 PM 33.5900 -93.8780 65° Northeast 523 602 35,000  Level FlightAware ADS-B
Wed 04:36:16 PM 33.6450 -93.7400 64° Northeast 521 600 35,000  Level FlightAware ADS-B
Wed 04:36:54 PM 33.6780 -93.6550 65° Northeast 521 600 35,000  Level FlightAware ADS-B
Wed 04:37:18 PM 33.6990 -93.6020 65° Northeast 521 600 35,000  Level FlightAware ADS-B
Wed 04:37:56 PM 33.7320 -93.5170 65° Northeast 521 600 35,000  Level FlightAware ADS-B
Wed 04:38:57 PM 33.7850 -93.3810 65° Northeast 521 600 35,000  Level FlightAware ADS-B
Wed 04:39:33 PM 33.8160 -93.3000 65° Northeast 521 600 35,000  Level FlightAware ADS-B
Wed 04:40:54 PM 33.9200 -93.0210 66° East 516 594 35,000  Level FlightAware ADS-B
Wed 04:41:34 PM 33.9530 -92.9310 66° East 516 594 35,000  Level FlightAware ADS-B
Wed 04:41:58 PM 33.9730 -92.8780 66° East 516 594 35,000  Level FlightAware ADS-B
Wed 04:42:34 PM 34.0180 -92.7600 65° Northeast 512 589 35,000  Level FlightAware ADS-B
Wed 04:43:27 PM 34.0730 -92.6120 66° East 510 587 35,000  Level FlightAware ADS-B
Wed 04:44:25 PM 34.1310 -92.4590 65° Northeast 508 585 35,000  Level FlightAware ADS-B
Wed 04:45:02 PM 34.1660 -92.3630 66° East 507 583 35,000  Level FlightAware ADS-B
Wed 04:45:30 PM 34.1930 -92.2890 66° East 506 582 35,000  Level FlightAware ADS-B
Wed 04:46:03 PM 34.2240 -92.2060 66° East 506 582 35,000  Level FlightAware ADS-B
Wed 04:46:35 PM 34.2550 -92.1210 66° East 505 581 35,000  Level FlightAware ADS-B
Wed 04:47:09 PM 34.2820 -92.0480 66° East 505 581 35,000  Level FlightAware ADS-B
Wed 04:48:04 PM 34.3390 -91.8940 66° East 505 581 35,000  Level FlightAware ADS-B
Wed 04:48:29 PM 34.3600 -91.8370 66° East 506 582 35,000  Level FlightAware ADS-B
Wed 04:49:19 PM 34.4080 -91.7050 66° East 506 582 35,000  Level FlightAware ADS-B
Wed 04:50:18 PM 34.4660 -91.5440 66° East 506 582 35,000  Level FlightAware ADS-B
Wed 04:51:12 PM 34.5160 -91.4060 66° East 502 578 35,000  Level FlightAware ADS-B
Wed 04:52:02 PM 34.5620 -91.2780 66° East 500 575 35,000  Level FlightAware ADS-B
Wed 04:52:54 PM 34.6110 -91.1400 67° East 508 585 35,000  Level FlightAware ADS-B
Wed 04:53:46 PM 34.6560 -91.0120 67° East 505 581 35,000  Level FlightAware ADS-B
Wed 04:54:32 PM 34.7000 -90.8880 67° East 501 577 35,000  Level FlightAware ADS-B
Wed 04:55:24 PM 34.7480 -90.7530 67° East 500 575 35,000  Level FlightAware ADS-B
Wed 04:56:05 PM 34.7860 -90.6470 66° East 499 574 35,000  Level FlightAware ADS-B
Wed 04:57:05 PM 34.8400 -90.4900 67° East 499 574 35,000  Level FlightAware ADS-B
Wed 04:57:35 PM 34.8670 -90.4120 67° East 498 573 35,000  Level FlightAware ADS-B
Wed 04:58:06 PM 34.8940 -90.3350 67° East 498 573 35,000  Level FlightAware ADS-B
Wed 04:58:38 PM 34.9230 -90.2530 67° East 494 568 35,000  Level FlightAware ADS-B
Wed 04:59:35 PM 34.9820 -90.1120 63° Northeast 486 559 35,000  Level FlightAware ADS-B
Wed 05:00:25 PM 35.0330 -90.0130 58° Northeast 486 559 35,000  Level FlightAware ADS-B
Wed 05:01:01 PM 35.0690 -89.9420 58° Northeast 486 559 35,000  Level FlightAware ADS-B
Wed 05:01:49 PM 35.1180 -89.8470 58° Northeast 486 559 35,000  Level FlightAware ADS-B
Wed 05:02:38 PM 35.1670 -89.7490 59° Northeast 486 559 35,000  Level FlightAware ADS-B
Wed 05:03:39 PM 35.2290 -89.6280 58° Northeast 486 559 35,000  Level FlightAware ADS-B
Wed 05:04:27 PM 35.2780 -89.5330 58° Northeast 486 559 35,000  Level FlightAware ADS-B
Wed 05:05:15 PM 35.3260 -89.4380 58° Northeast 486 559 35,000  Level FlightAware ADS-B
Wed 05:06:03 PM 35.3750 -89.3420 58° Northeast 486 559 35,000  Level FlightAware ADS-B
Wed 05:07:03 PM 35.4360 -89.2230 58° Northeast 486 559 35,000  Level FlightAware ADS-B
Wed 05:09:28 PM 36.0000 -89.2570 357° North 454 522 35,000  Level FlightAware ADS-B
Wed 05:10:28 PM 36.0920 -89.1890 31° Northeast 454 522 35,000  Level FlightAware ADS-B
Wed 05:11:28 PM 36.1840 -89.1200 31° Northeast 454 522 35,000  Level FlightAware ADS-B
Wed 05:12:14 PM 36.3240 -89.0110 32° Northeast 449 517 35,000 -480 Level FlightAware ADS-B
Wed 05:13:08 PM 36.4130 -88.9430 32° Northeast 442 509 34,200 -1,000 Descending FlightAware ADS-B
Wed 05:13:38 PM 36.4640 -88.8930 38° Northeast 431 496 33,600 -889 Descending FlightAware ADS-B
Wed 05:14:29 PM 36.5400 -88.8050 43° Northeast 429 494 33,000 -353 Descending FlightAware ADS-B
Wed 05:15:20 PM 36.6120 -88.7190 44° Northeast 436 502 33,000  Level FlightAware ADS-B
Wed 05:15:47 PM 36.6540 -88.6690 44° Northeast 436 502 33,000  Level FlightAware ADS-B
Wed 05:16:37 PM 36.7270 -88.5820 44° Northeast 438 504 33,000  Level FlightAware ADS-B
Wed 05:17:26 PM 36.7950 -88.5020 43° Northeast 438 504 33,000  Level FlightAware ADS-B
Wed 05:17:57 PM 36.8420 -88.4460 44° Northeast 439 505 33,000  Level FlightAware ADS-B
Wed 05:18:31 PM 36.8930 -88.3860 43° Northeast 439 505 33,000  Level FlightAware ADS-B
Wed 05:19:20 PM 36.9660 -88.2980 44° Northeast 439 505 33,000  Level FlightAware ADS-B
Wed 05:20:09 PM 37.0330 -88.2170 44° Northeast 441 507 33,000  Level FlightAware ADS-B
Wed 05:21:06 PM 37.1220 -88.1110 44° Northeast 439 505 33,000  Level FlightAware ADS-B
Wed 05:21:35 PM 37.1640 -88.0600 44° Northeast 439 505 33,000  Level FlightAware ADS-B
Wed 05:22:28 PM 37.2420 -87.9660 44° Northeast 438 504 33,000  Level FlightAware ADS-B
Wed 05:23:16 PM 37.3130 -87.8810 44° Northeast 438 504 33,000  Level FlightAware ADS-B
Wed 05:24:12 PM 37.3960 -87.7800 44° Northeast 439 505 33,000  Level FlightAware ADS-B
Wed 05:25:02 PM 37.4670 -87.6930 44° Northeast 439 505 33,000  Level FlightAware ADS-B
Wed 05:25:55 PM 37.5450 -87.5980 44° Northeast 439 505 33,000  Level FlightAware ADS-B
Wed 05:26:45 PM 37.6180 -87.5090 44° Northeast 440 506 33,000  Level FlightAware ADS-B
Wed 05:27:39 PM 37.6980 -87.4100 44° Northeast 439 505 33,000  Level FlightAware ADS-B
Wed 05:28:30 PM 37.7700 -87.3210 44° Northeast 437 503 33,000  Level FlightAware ADS-B
Wed 05:28:56 PM 37.8080 -87.2750 44° Northeast 437 503 33,000  Level FlightAware ADS-B
Wed 05:29:29 PM 37.8480 -87.2260 44° Northeast 437 503 33,000  Level FlightAware ADS-B
Wed 05:30:32 PM 37.9470 -87.1030 44° Northeast 437 503 33,000  Level FlightAware ADS-B
Wed 05:31:27 PM 38.0270 -87.0040 44° Northeast 437 503 33,000  Level FlightAware ADS-B
Wed 05:32:14 PM 38.0950 -86.9170 45° Northeast 437 503 33,000  Level FlightAware ADS-B
Wed 05:33:00 PM 38.1590 -86.8380 44° Northeast 436 502 33,000  Level FlightAware ADS-B
Wed 05:33:53 PM 38.2340 -86.7420 45° Northeast 436 502 33,000  Level FlightAware ADS-B
Wed 05:34:21 PM 38.2770 -86.6900 44° Northeast 436 502 33,000  Level FlightAware ADS-B
Wed 05:34:53 PM 38.3220 -86.6320 45° Northeast 436 502 33,000  Level FlightAware ADS-B
Wed 05:35:50 PM 38.4040 -86.5290 45° Northeast 436 502 33,000  Level FlightAware ADS-B
Wed 05:36:35 PM 38.4690 -86.4470 45° Northeast 436 502 33,000  Level FlightAware ADS-B
Wed 05:37:45 PM 38.5700 -86.3190 45° Northeast 438 504 33,000  Level FlightAware ADS-B
Wed 05:38:09 PM 38.6050 -86.2730 46° Northeast 437 503 33,000  Level FlightAware ADS-B
Wed 05:39:03 PM 38.6810 -86.1760 45° Northeast 436 502 33,000  Level FlightAware ADS-B
Wed 05:39:55 PM 38.7560 -86.0810 45° Northeast 437 503 33,000  Level FlightAware ADS-B
Wed 05:40:55 PM 38.8400 -85.9720 45° Northeast 438 504 33,000  Level FlightAware ADS-B
Wed 05:41:51 PM 38.9220 -85.8660 45° Northeast 436 502 33,000  Level FlightAware ADS-B
Wed 05:42:20 PM 38.9600 -85.8180 44° Northeast 437 503 33,000  Level FlightAware ADS-B
Wed 05:42:43 PM 38.9950 -85.7710 46° Northeast 437 503 33,000  Level FlightAware ADS-B
Wed 05:43:35 PM 39.0680 -85.6770 45° Northeast 437 503 33,000  Level FlightAware ADS-B
Wed 05:44:03 PM 39.1100 -85.6220 45° Northeast 436 502 33,000  Level FlightAware ADS-B
Wed 05:45:01 PM 39.1930 -85.5140 45° Northeast 438 504 33,000  Level FlightAware ADS-B
Wed 05:46:00 PM 39.2720 -85.4090 46° Northeast 438 504 33,000  Level FlightAware ADS-B
Wed 05:46:21 PM 39.2990 -85.3740 45° Northeast 438 504 33,000  Level FlightAware ADS-B
Wed 05:47:15 PM 39.3820 -85.2650 45° Northeast 437 503 33,000  Level FlightAware ADS-B
Wed 05:48:11 PM 39.4600 -85.1620 46° Northeast 436 502 33,000  Level FlightAware ADS-B
Wed 05:49:03 PM 39.5320 -85.0670 45° Northeast 437 503 33,000  Level FlightAware ADS-B
Wed 05:49:43 PM 39.5910 -84.9880 46° Northeast 436 502 33,000  Level FlightAware ADS-B
Wed 05:50:34 PM 39.6630 -84.8920 46° Northeast 435 501 33,000  Level FlightAware ADS-B
Wed 05:51:27 PM 39.7360 -84.7950 46° Northeast 437 503 33,000  Level FlightAware ADS-B
Wed 05:52:26 PM 39.8210 -84.6790 46° Northeast 437 503 33,000  Level FlightAware ADS-B
Wed 05:52:54 PM 39.8590 -84.6280 46° Northeast 437 503 33,000  Level FlightAware ADS-B
Wed 05:53:35 PM 39.9170 -84.5500 46° Northeast 437 503 33,000  Level FlightAware ADS-B
Wed 05:54:26 PM 39.9890 -84.4530 46° Northeast 437 503 33,000  Level FlightAware ADS-B
Wed 05:54:50 PM 40.0230 -84.4060 47° Northeast 436 502 33,000  Level FlightAware ADS-B
Wed 05:55:22 PM 40.0670 -84.3470 46° Northeast 434 499 33,000  Level FlightAware ADS-B
Wed 05:56:10 PM 40.1340 -84.2560 46° Northeast 435 501 33,000  Level FlightAware ADS-B
Wed 05:57:00 PM 40.2010 -84.1620 47° Northeast 437 503 33,000  Level FlightAware ADS-B
Wed 05:57:31 PM 40.2340 -84.0930 58° Northeast 439 505 33,000  Level FlightAware ADS-B
Wed 05:58:20 PM 40.2890 -83.9770 58° Northeast 440 506 33,000  Level FlightAware ADS-B
Wed 05:59:12 PM 40.3420 -83.8660 58° Northeast 439 505 33,000  Level FlightAware ADS-B
Wed 05:59:44 PM 40.3760 -83.7910 59° Northeast 439 505 33,000  Level FlightAware ADS-B
Wed 06:00:40 PM 40.4360 -83.6640 58° Northeast 439 505 33,000  Level FlightAware ADS-B
Wed 06:01:32 PM 40.4910 -83.5450 59° Northeast 438 504 33,000  Level FlightAware ADS-B
Wed 06:02:18 PM 40.5400 -83.4410 58° Northeast 438 504 33,000  Level FlightAware ADS-B
Wed 06:03:08 PM 40.5930 -83.3250 59° Northeast 439 505 33,000  Level FlightAware ADS-B
Wed 06:04:04 PM 40.6530 -83.1940 59° Northeast 440 506 33,000  Level FlightAware ADS-B
Wed 06:04:28 PM 40.6780 -83.1420 58° Northeast 441 507 33,000  Level FlightAware ADS-B
Wed 06:05:28 PM 40.7410 -83.0030 59° Northeast 442 509 33,000  Level FlightAware ADS-B
Wed 06:06:06 PM 40.7810 -82.9150 59° Northeast 441 507 33,000  Level FlightAware ADS-B
Wed 06:06:58 PM 40.8360 -82.7950 59° Northeast 442 509 33,000  Level FlightAware ADS-B
Wed 06:07:48 PM 40.8880 -82.6790 59° Northeast 443 510 33,000  Level FlightAware ADS-B
Wed 06:08:10 PM 40.9100 -82.6300 59° Northeast 442 509 33,000  Level FlightAware ADS-B
Wed 06:09:04 PM 40.9660 -82.5070 59° Northeast 443 510 33,000  Level FlightAware ADS-B
Wed 06:10:05 PM 41.0280 -82.3690 59° Northeast 443 510 33,000  Level FlightAware ADS-B
Wed 06:10:49 PM 41.0770 -82.2570 60° Northeast 444 511 33,000  Level FlightAware ADS-B
Wed 06:11:34 PM 41.1240 -82.1510 59° Northeast 444 511 33,000  Level FlightAware ADS-B
Wed 06:12:24 PM 41.1770 -82.0340 59° Northeast 445 512 33,000  Level FlightAware ADS-B
Wed 06:13:18 PM 41.2330 -81.9040 60° Northeast 444 511 33,000  Level FlightAware ADS-B
Wed 06:13:58 PM 41.2740 -81.8150 58° Northeast 443 510 33,000  Level FlightAware ADS-B
Wed 06:14:42 PM 41.3190 -81.7110 60° Northeast 442 509 33,000  Level FlightAware ADS-B
Wed 06:15:38 PM 41.3770 -81.5770 60° Northeast 444 511 33,000  Level FlightAware ADS-B
Wed 06:16:26 PM 41.4270 -81.4630 60° Northeast 445 512 33,000  Level FlightAware ADS-B
Wed 06:17:14 PM 41.4770 -81.3470 60° Northeast 445 512 33,000  Level FlightAware ADS-B
Wed 06:18:00 PM 41.5230 -81.2390 60° Northeast 446 513 33,000 57 Level FlightAware ADS-B
Wed 06:19:00 PM 41.5580 -81.0860 73° East 468 539 33,100  Climbing FlightAware ADS-B
Wed 06:20:00 PM 41.5570 -80.9120 90° East 470 541 33,000 -53 Descending FlightAware ADS-B
Wed 06:20:53 PM 41.5570 -80.7500 90° East 471 542 33,000  Level FlightAware ADS-B
Wed 06:21:45 PM 41.5560 -80.5990 90° East 469 540 33,000  Level FlightAware ADS-B
Wed 06:22:33 PM 41.5550 -80.4630 91° East 454 522 33,000  Level FlightAware ADS-B
Wed 06:23:41 PM 41.5540 -80.2760 90° East 453 521 33,000  Level FlightAware ADS-B
Wed 06:24:32 PM 41.5530 -80.1340 90° East 453 521 33,000  Level FlightAware ADS-B
Wed 06:25:00 PM 41.5520 -80.0560 91° East 454 522 33,000  Level FlightAware ADS-B
Wed 06:25:58 PM 41.5500 -79.8930 91° East 454 522 33,000  Level FlightAware ADS-B
Wed 06:26:46 PM 41.5490 -79.7590 91° East 452 520 33,000  Level FlightAware ADS-B
Wed 06:27:20 PM 41.5480 -79.6650 91° East 454 522 33,000  Level FlightAware ADS-B
Wed 06:28:10 PM 41.5460 -79.5220 91° East 453 521 33,000  Level FlightAware ADS-B
Wed 06:29:06 PM 41.5430 -79.3690 91° East 450 518 33,000  Level FlightAware ADS-B
Wed 06:30:01 PM 41.5410 -79.2190 91° East 451 519 33,000  Level FlightAware ADS-B
Wed 06:30:57 PM 41.5380 -79.0630 91° East 452 520 33,000  Level FlightAware ADS-B
Wed 06:31:31 PM 41.5360 -78.9630 91° East 452 520 33,000  Level FlightAware ADS-B
Wed 06:32:37 PM 41.5330 -78.7820 91° East 452 520 33,000  Level FlightAware ADS-B
Wed 06:33:15 PM 41.5300 -78.6730 92° East 451 519 33,000  Level FlightAware ADS-B
Wed 06:34:00 PM 41.5280 -78.5510 91° East 452 520 33,000  Level FlightAware ADS-B
Wed 06:34:29 PM 41.5260 -78.4700 92° East 452 520 33,000 -205 Level FlightAware ADS-B
Wed 06:35:28 PM 41.5220 -78.3050 92° East 453 521 32,700 -623 Descending FlightAware ADS-B
Wed 06:36:15 PM 41.5180 -78.1740 92° East 456 525 31,900 -1,014 Descending FlightAware ADS-B
Wed 06:36:39 PM 41.5170 -78.1040 91° East 458 527 31,500 -684 Descending FlightAware ADS-B
Wed 06:37:34 PM 41.5100 -77.9540 94° East 463 533 31,000 -280 Descending FlightAware ADS-B
Wed 06:38:26 PM 41.4910 -77.8160 100° East 463 533 31,000  Level FlightAware ADS-B
Wed 06:38:53 PM 41.4783 -77.7260 101° East 462 532 31,000  Level FlightAware ADS-B (KWWD)
Wed 06:39:36 PM 41.4609 -77.6057 101° East 462 532 31,000  Level FlightAware ADS-B (KWWD)
Wed 06:40:15 PM 41.4450 -77.4963 101° East 462 532 31,000 -333 Level FlightAware ADS-B (KWWD)
Wed 06:40:48 PM 41.4334 -77.4176 101° East 465 535 30,600 -971 Descending FlightAware ADS-B (KWWD)
Wed 06:41:23 PM 41.4170 -77.3044 101° East 468 539 29,900 -1,096 Descending FlightAware ADS-B (KWWD)
Wed 06:42:32 PM 41.3881 -77.1070 101° East 468 539 28,700 -1,087 Descending FlightAware ADS-B (KWWD)
Wed 06:43:30 PM 41.3630 -76.9420 101° East 476 548 27,600 -1,299 Descending FlightAware ADS-B
Wed 06:44:09 PM 41.3470 -76.8300 101° East 472 543 26,600 -1,740 Descending FlightAware ADS-B
Wed 06:45:10 PM 41.3090 -76.6620 107° East 463 533 24,700 -1,805 Descending FlightAware ADS-B
Wed 06:46:02 PM 41.2720 -76.5250 110° East 448 516 23,200 -1,833 Descending FlightAware ADS-B
Wed 06:46:22 PM 41.2570 -76.4710 110° East 446 513 22,500 -1,973 Descending FlightAware ADS-B
Wed 06:47:15 PM 41.2207 -76.3370 110° East 442 509 20,800 -1,892 Descending FlightAware ADS-B (KWWD)
Wed 06:48:13 PM 41.1811 -76.1900 110° East 431 496 19,000 -1,761 Descending FlightAware ADS-B (KWWD)
Wed 06:48:47 PM 41.1585 -76.1071 110° East 420 483 18,100 -896 Descending FlightAware ADS-B (KWWD)
Wed 06:49:20 PM 41.1367 -76.0274 110° East 416 479 18,000 -867 Descending FlightAware ADS-B (KWWD)
Wed 06:50:10 PM 41.1035 -75.9066 110° East 416 479 16,900 -1,674 Descending FlightAware ADS-B (KWWD)
Wed 06:50:46 PM 41.0800 -75.8214 110° East 404 465 15,600 -2,282 Descending FlightAware ADS-B (KWWD)
Wed 06:51:21 PM 41.0577 -75.7405 110° East 394 453 14,200 -2,314 Descending FlightAware ADS-B (KWWD)
Wed 06:51:56 PM 41.0357 -75.6620 110° East 389 448 12,900 -1,519 Descending FlightAware ADS-B (KWWD)
Wed 06:52:40 PM 41.0100 -75.5706 110° East 349 402 12,200 -876 Descending FlightAware ADS-B (KWWD)
Wed 06:53:25 PM 40.9857 -75.4823 110° East 326 375 11,600 -1,026 Descending FlightAware ADS-B (KWWD)
Wed 06:53:56 PM 40.9698 -75.4247 110° East 319 367 10,900 -1,421 Descending FlightAware ADS-B (KWWD)
Wed 06:54:41 PM 40.9480 -75.3460 110° East 316 364 9,800 -1,477 Descending FlightAware ADS-B
Wed 06:55:01 PM 40.9370 -75.3080 111° Southeast 314 361 9,300 -1,500 Descending FlightAware ADS-B
Wed 06:55:25 PM 40.9250 -75.2650 110° East 312 359 8,700 -1,469 Descending FlightAware ADS-B
Wed 06:55:50 PM 40.9120 -75.2210 111° Southeast 308 354 8,100 -1,224 Descending FlightAware ADS-B
Wed 06:56:14 PM 40.9010 -75.1810 110° East 300 345 7,700 -923 Descending FlightAware ADS-B
Wed 06:56:42 PM 40.8870 -75.1330 111° Southeast 298 343 7,300 -931 Descending FlightAware ADS-B
Wed 06:57:12 PM 40.8720 -75.0800 111° Southeast 294 338 6,800 -857 Descending FlightAware ADS-B
Wed 06:57:31 PM 40.8660 -75.0460 103° East 275 316 6,600 -279 Descending FlightAware ADS-B
Wed 06:57:55 PM 40.8690 -75.0120 83° East 251 289 6,600  Level FlightAware ADS-B
Wed 06:58:17 PM 40.8730 -74.9760 82° East 246 283 6,600  Level FlightAware ADS-B
Wed 06:58:56 PM 40.8790 -74.9180 82° East 243 280 6,600  Level FlightAware ADS-B
Wed 06:59:09 PM 40.8810 -74.8980 82° East 247 284 6,600  Level FlightAware ADS-B
Wed 06:59:52 PM 40.8790 -74.8350 92° East 250 288 6,600 -179 Level FlightAware ADS-B
Wed 07:00:16 PM 40.8780 -74.7980 92° East 247 284 6,400 -706 Descending FlightAware ADS-B
Wed 07:00:26 PM 40.8780 -74.7830 90° East 245 282 6,200 -1,071 Descending FlightAware ADS-B
Wed 07:00:44 PM 40.8780 -74.7560 90° East 241 277 5,900 -764 Descending FlightAware ADS-B
Wed 07:01:21 PM 40.8770 -74.7040 91° East 235 270 5,500 -692 Descending FlightAware ADS-B
Wed 07:01:36 PM 40.8770 -74.6840 90° East 235 270 5,300 -913 Descending FlightAware ADS-B
Wed 07:02:07 PM 40.8770 -74.6370 90° East 235 270 4,800 -764 Descending FlightAware ADS-B
Wed 07:02:31 PM 40.8700 -74.6040 106° East 245 282 4,600 -222 Descending FlightAware ADS-B
Wed 07:03:01 PM 40.8400 -74.5850 154° Southeast 241 277 4,600  Level FlightAware ADS-B
Wed 07:03:29 PM 40.8090 -74.5870 183° South 237 273 4,600  Level FlightAware ADS-B
Wed 07:03:48 PM 40.7880 -74.5890 184° South 236 272 4,600  Level FlightAware ADS-B
Wed 07:04:21 PM 40.7530 -74.5920 184° South 238 274 4,600  Level FlightAware ADS-B
Wed 07:04:47 PM 40.7230 -74.5940 183° South 238 274 4,600  Level FlightAware ADS-B
Wed 07:05:19 PM 40.6880 -74.5970 184° South 241 277 4,600  Level FlightAware ADS-B
Wed 07:05:39 PM 40.6650 -74.5990 184° South 242 278 4,600  Level FlightAware ADS-B
Wed 07:06:05 PM 40.6370 -74.6000 182° South 244 281 4,600  Level FlightAware ADS-B
Wed 07:06:22 PM 40.6170 -74.5980 176° South 243 280 4,600  Level FlightAware ADS-B
Wed 07:06:45 PM 40.5910 -74.5950 175° South 243 280 4,600  Level FlightAware ADS-B
Wed 07:07:03 PM 40.5710 -74.5920 173° South 242 278 4,600  Level FlightAware ADS-B
Wed 07:07:27 PM 40.5440 -74.5880 174° South 242 278 4,600  Level FlightAware ADS-B
Wed 07:07:54 PM 40.5140 -74.5840 174° South 241 277 4,600 -409 Level FlightAware ADS-B
Wed 07:08:11 PM 40.4960 -74.5770 164° South 248 285 4,300 -933 Descending FlightAware ADS-B
Wed 07:08:39 PM 40.4680 -74.5590 154° Southeast 238 274 3,900 -857 Descending FlightAware ADS-B
Wed 07:09:07 PM 40.4400 -74.5410 154° Southeast 228 262 3,500 -828 Descending FlightAware ADS-B
Wed 07:09:37 PM 40.4140 -74.5230 152° Southeast 225 259 3,100 -840 Descending FlightAware ADS-B
Wed 07:09:57 PM 40.3950 -74.5110 154° Southeast 225 259 2,800 -652 Descending FlightAware ADS-B
Wed 07:10:23 PM 40.3720 -74.4950 152° Southeast 219 252 2,600 -226 Descending FlightAware ADS-B
Wed 07:10:50 PM 40.3480 -74.4740 146° Southeast 207 238 2,600  Level FlightAware ADS-B
Wed 07:11:24 PM 40.3510 -74.4390 84° East 197 227 2,600  Level FlightAware ADS-B
Wed 07:11:57 PM 40.3720 -74.4040 52° Northeast 195 224 2,600  Level FlightAware ADS-B
Wed 07:12:26 PM 40.3870 -74.3780 53° Northeast 196 226 2,600  Level FlightAware ADS-B
Wed 07:12:53 PM 40.4030 -74.3530 50° Northeast 193 222 2,600  Level FlightAware ADS-B
Wed 07:13:18 PM 40.4210 -74.3370 34° Northeast 191 220 2,600  Level FlightAware ADS-B
Wed 07:13:42 PM 40.4410 -74.3230 28° Northeast 188 216 2,600  Level FlightAware ADS-B
Wed 07:14:04 PM 40.4570 -74.3130 25° Northeast 182 209 2,600  Level FlightAware ADS-B
Wed 07:14:28 PM 40.4760 -74.3030 22° Northeast 178 205 2,600  Level FlightAware ADS-B
Wed 07:14:52 PM 40.4920 -74.2930 25° Northeast 178 205 2,600  Level FlightAware ADS-B
Wed 07:15:27 PM 40.5190 -74.2750 27° Northeast 181 208 2,600  Level FlightAware ADS-B
Wed 07:15:46 PM 40.5348 -74.2648 26° Northeast 180 207 2,600  Level FlightAware ADS-B
Wed 07:15:59 PM 40.5440 -74.2589 26° Northeast 180 207 2,600 -214 Level FlightAware ADS-B
Wed 07:16:14 PM 40.5554 -74.2517 26° Northeast 183 211 2,500 -882 Descending FlightAware ADS-B
Wed 07:16:33 PM 40.5701 -74.2427 25° Northeast 183 211 2,100 -1,135 Descending FlightAware ADS-B
Wed 07:16:51 PM 40.5836 -74.2342 26° Northeast 178 205 1,800 -909 Descending FlightAware ADS-B
Wed 07:17:06 PM 40.5948 -74.2268 27° Northeast 174 200 1,600 -774 Descending FlightAware ADS-B
Wed 07:17:22 PM 40.6059 -74.2200 25° Northeast 162 186 1,400 -766 Descending FlightAware ADS-B
Wed 07:17:53 PM 40.6253 -74.2074 26° Northeast 140 161 1,000 -857 Descending FlightAware ADS-B
Wed 07:18:11 PM 40.6348 -74.2015 25° Northeast 123 142 700 -828 Descending FlightAware ADS-B
Wed 07:18:51 PM 40.6559 -74.1882 26° Northeast 126 145 200 -643 Descending FlightAware ADS-B
Wed 07:19:07 PM 40.6642 -74.1831 25° Northeast 127 146 100 -375 Descending FlightAware ADS-B
Wed 07:19:24 PM 40.6732 -74.1773 26° Northeast 127 146 -353 Descending FlightAware ADS-B
Wed 07:21:07 PM 40.6958 -74.1646 270° West 121 139  Level FlightAware ADS-B

Login

Don't have an account? Register now (free) for customized features, flight alerts, and more!